createdAt,value
2022-11-17T00:00:28.803Z,-0.15
2022-11-17T00:02:55.572Z,-0.16
2022-11-17T00:05:22.537Z,-0.20
2022-11-17T00:07:50.091Z,-0.23
2022-11-17T00:10:17.632Z,-0.13
2022-11-17T00:13:02.855Z,-0.10
2022-11-17T00:15:29.562Z,-0.11
2022-11-17T00:18:15.089Z,0.00
2022-11-17T00:21:00.229Z,-0.19
2022-11-17T00:23:47.130Z,-0.13
2022-11-17T00:26:25.144Z,-0.25
2022-11-17T00:28:53.580Z,-0.25
2022-11-17T00:31:38.969Z,-0.21
2022-11-17T00:34:06.883Z,-0.15
2022-11-17T00:36:33.662Z,-0.01
2022-11-17T00:39:00.325Z,-0.20
2022-11-17T00:41:27.023Z,-0.13
2022-11-17T00:43:53.632Z,-0.26
2022-11-17T00:46:20.236Z,-0.07
2022-11-17T00:48:46.842Z,-0.22
2022-11-17T00:51:13.504Z,-0.04
2022-11-17T00:53:40.116Z,-0.12
2022-11-17T00:56:06.963Z,-0.16
2022-11-17T00:58:35.521Z,0.00
2022-11-17T01:01:02.946Z,-0.16
2022-11-17T01:03:29.732Z,-0.27
2022-11-17T01:05:56.352Z,-0.29
2022-11-17T01:08:22.975Z,-0.09
2022-11-17T01:10:49.573Z,-0.06
2022-11-17T01:13:17.861Z,-0.28
2022-11-17T01:15:44.536Z,-0.32
2022-11-17T01:18:11.192Z,-0.29
2022-11-17T01:20:37.990Z,-0.32
2022-11-17T01:23:04.601Z,-0.38
2022-11-17T01:25:31.313Z,-0.40
2022-11-17T01:27:57.983Z,-0.32
2022-11-17T01:30:24.605Z,-0.35
2022-11-17T01:32:51.186Z,-0.38
2022-11-17T01:35:17.943Z,-0.29
2022-11-17T01:37:44.640Z,-0.31
2022-11-17T01:40:13.726Z,-0.31
2022-11-17T01:42:40.350Z,-0.42
2022-11-17T01:45:24.047Z,-0.43
2022-11-17T01:47:57.442Z,-0.67
2022-11-17T01:50:27.195Z,-0.59
2022-11-17T01:52:56.225Z,-0.45
2022-11-17T01:55:24.511Z,-0.47
2022-11-17T01:57:56.771Z,-0.51
2022-11-17T02:00:23.522Z,-0.42
2022-11-17T02:02:50.596Z,-0.41
2022-11-17T02:05:17.125Z,-0.44
2022-11-17T02:07:44.889Z,-0.45
2022-11-17T02:10:11.633Z,-0.45
2022-11-17T02:12:38.461Z,-0.41
2022-11-17T02:15:06.012Z,-0.31
2022-11-17T02:17:36.973Z,-0.44
2022-11-17T02:20:06.592Z,-0.53
2022-11-17T02:22:39.185Z,-0.42
2022-11-17T02:25:34.921Z,-0.37
2022-11-17T02:28:17.313Z,-0.44
2022-11-17T02:31:11.373Z,-0.60
2022-11-17T02:33:55.788Z,-0.57
2022-11-17T02:36:56.750Z,-0.63
2022-11-17T02:39:27.159Z,-0.45
2022-11-17T02:42:02.953Z,-0.62
2022-11-17T02:44:52.913Z,-0.61
2022-11-17T02:47:24.308Z,-0.63
2022-11-17T02:49:55.690Z,-0.66
2022-11-17T02:52:22.769Z,-0.68
2022-11-17T02:54:49.353Z,-0.64
2022-11-17T02:57:37.587Z,-0.40
2022-11-17T03:00:06.501Z,-0.64
2022-11-17T03:03:00.504Z,-0.60
2022-11-17T03:05:50.344Z,-0.66
2022-11-17T03:08:44.871Z,-0.70
2022-11-17T03:11:11.892Z,-0.78
2022-11-17T03:14:03.631Z,-0.79
2022-11-17T03:16:56.457Z,-0.60
2022-11-17T03:19:31.255Z,-0.51
2022-11-17T03:22:05.949Z,-0.82
2022-11-17T03:24:56.611Z,-0.71
2022-11-17T03:27:29.232Z,-0.71
2022-11-17T03:29:59.523Z,-0.78
2022-11-17T03:32:28.762Z,-0.81
2022-11-17T03:35:18.454Z,-0.81
2022-11-17T03:37:52.363Z,-0.89
2022-11-17T03:40:21.924Z,-0.83
2022-11-17T03:42:54.108Z,-1.03
2022-11-17T03:45:26.725Z,-1.03
2022-11-17T03:48:29.994Z,-0.98
2022-11-17T03:50:59.539Z,-0.90
2022-11-17T03:53:26.141Z,-1.00
2022-11-17T03:56:29.792Z,-0.88
2022-11-17T03:59:15.408Z,-1.02
2022-11-17T04:01:42.291Z,-1.07
2022-11-17T04:04:17.725Z,-1.16
2022-11-17T04:06:44.407Z,-1.18
2022-11-17T04:09:11.406Z,-1.04
2022-11-17T04:11:56.750Z,-0.98
2022-11-17T04:14:41.809Z,-1.11
2022-11-17T04:17:08.502Z,-0.98
2022-11-17T04:19:35.095Z,-0.97
2022-11-17T04:22:01.781Z,-0.96
2022-11-17T04:24:28.439Z,-0.99
2022-11-17T04:27:13.288Z,-1.17
2022-11-17T04:29:39.870Z,-1.13
2022-11-17T04:32:06.474Z,-1.11
2022-11-17T04:34:33.133Z,-0.98
2022-11-17T04:37:03.868Z,-0.96
2022-11-17T04:39:34.219Z,-1.05
2022-11-17T04:42:03.985Z,-1.12
2022-11-17T04:44:31.943Z,-0.94
2022-11-17T04:46:58.760Z,-1.12
2022-11-17T04:49:26.226Z,-1.15
2022-11-17T04:51:53.776Z,-1.23
2022-11-17T04:54:24.142Z,-1.17
2022-11-17T04:56:51.528Z,-1.23
2022-11-17T04:59:18.151Z,-1.38
2022-11-17T05:01:45.443Z,-1.31
2022-11-17T05:04:39.888Z,-1.26
2022-11-17T05:07:08.306Z,-1.31
2022-11-17T05:09:35.039Z,-1.33
2022-11-17T05:12:20.227Z,-1.27
2022-11-17T05:14:49.177Z,-1.34
2022-11-17T05:17:16.453Z,-1.26
2022-11-17T05:19:45.009Z,-1.32
2022-11-17T05:22:36.321Z,-1.27
2022-11-17T05:25:04.024Z,-1.35
2022-11-17T05:27:30.833Z,-1.27
2022-11-17T05:29:57.424Z,-1.23
2022-11-17T05:32:24.163Z,-1.23
2022-11-17T05:34:50.964Z,-1.18
2022-11-17T05:37:17.586Z,-1.32
2022-11-17T05:39:44.240Z,-1.27
2022-11-17T05:42:10.939Z,-1.35
2022-11-17T05:44:37.619Z,-1.24
2022-11-17T05:47:04.333Z,-1.24
2022-11-17T05:49:30.941Z,-1.32
2022-11-17T05:52:00.924Z,-1.22
2022-11-17T05:54:27.528Z,-1.26
2022-11-17T07:31:34.579Z,-2.18
2022-11-17T07:34:01.263Z,-2.30
2022-11-17T07:36:28.249Z,-1.94
2022-11-17T07:38:54.971Z,-1.86
2022-11-17T07:41:21.776Z,-2.09
2022-11-17T07:43:48.524Z,-2.02
2022-11-17T07:46:15.419Z,-1.95
2022-11-17T07:48:43.308Z,-1.98
2022-11-17T07:51:10.229Z,-1.72
2022-11-17T07:53:36.996Z,-1.79
2022-11-17T07:56:09.571Z,-1.65
2022-11-17T07:58:37.618Z,-1.80
2022-11-17T08:01:06.162Z,-1.87
2022-11-17T08:03:33.041Z,-1.69
2022-11-17T08:06:06.542Z,-1.75
2022-11-17T08:08:34.212Z,-1.84
2022-11-17T08:11:06.181Z,-1.62
2022-11-17T08:13:33.462Z,-1.73
2022-11-17T08:16:00.526Z,-1.60
2022-11-17T08:18:27.929Z,-1.85
2022-11-17T08:21:11.745Z,-1.73
2022-11-17T08:23:38.884Z,-1.85
2022-11-17T08:26:07.458Z,-1.70
2022-11-17T08:28:34.792Z,-1.73
2022-11-17T08:31:05.681Z,-1.81
2022-11-17T08:33:33.000Z,-1.73
2022-11-17T08:36:01.378Z,-1.67
2022-11-17T08:38:31.466Z,-1.52
2022-11-17T08:40:59.478Z,-1.50
2022-11-17T08:43:26.351Z,-1.72
2022-11-17T08:45:53.117Z,-1.71
2022-11-17T08:48:20.198Z,-1.58
2022-11-17T08:50:47.169Z,-1.51
2022-11-17T08:53:19.313Z,-1.69
2022-11-17T08:55:46.727Z,-1.81
2022-11-17T08:58:13.701Z,-1.78
2022-11-17T09:00:41.213Z,-1.70
2022-11-17T09:03:09.528Z,-1.48
2022-11-17T09:05:41.166Z,-1.57
2022-11-17T09:08:30.185Z,-1.73
2022-11-17T09:10:55.550Z,-1.65
2022-11-17T09:13:22.282Z,-1.56
2022-11-17T09:15:49.000Z,-1.64
2022-11-17T09:18:15.759Z,-1.71
2022-11-17T09:20:45.838Z,-1.62
2022-11-17T09:23:12.949Z,-1.55
2022-11-17T09:25:40.173Z,-1.67
2022-11-17T09:28:07.033Z,-1.66
2022-11-17T09:30:33.767Z,-1.63
2022-11-17T09:33:00.592Z,-1.45
2022-11-17T09:35:27.292Z,-1.42
2022-11-17T09:37:59.133Z,-1.31
2022-11-17T09:40:25.980Z,-1.66
2022-11-17T09:42:52.682Z,-1.68
2022-11-17T09:45:25.621Z,-1.75
2022-11-17T09:48:18.461Z,-1.76
2022-11-17T09:50:45.891Z,-1.62
2022-11-17T09:53:37.198Z,-1.52
2022-11-17T09:56:06.378Z,-1.83
2022-11-17T09:58:41.708Z,-1.94
2022-11-17T13:27:04.129Z,-2.43
2022-11-17T13:29:30.902Z,-2.54
2022-11-17T13:32:21.217Z,-2.43
2022-11-17T13:34:54.098Z,-2.36
2022-11-17T13:37:28.392Z,-2.50
2022-11-17T13:39:56.714Z,-2.57
2022-11-17T13:42:26.273Z,-2.39
2022-11-17T13:44:58.033Z,-2.34
2022-11-17T13:47:40.422Z,-2.44
2022-11-17T13:50:29.583Z,-2.43
2022-11-17T13:52:58.917Z,-2.40
2022-11-17T13:55:27.320Z,-2.34
2022-11-17T13:58:08.432Z,-2.43
2022-11-17T14:00:35.122Z,-2.38
2022-11-17T14:03:04.723Z,-2.37
2022-11-17T14:05:32.811Z,-2.27
2022-11-17T14:08:12.910Z,-2.29
2022-11-17T14:10:40.045Z,-2.32
2022-11-17T14:13:06.692Z,-2.40
2022-11-17T14:15:38.830Z,-2.38
2022-11-17T14:18:31.960Z,-2.41
2022-11-17T14:21:25.633Z,-2.45
2022-11-17T14:24:02.574Z,-2.47
2022-11-17T14:26:29.902Z,-2.41
2022-11-17T14:29:02.250Z,-2.44
2022-11-17T14:31:30.599Z,-2.45
2022-11-17T14:33:57.377Z,-2.42
2022-11-17T14:36:24.259Z,-2.25
2022-11-17T14:38:51.082Z,-2.42
2022-11-17T14:41:19.279Z,-2.42
2022-11-17T14:43:46.459Z,-2.29
2022-11-17T14:46:19.638Z,-2.41
2022-11-17T14:48:46.468Z,-2.47
2022-11-17T14:51:15.961Z,-2.30
2022-11-17T14:53:44.182Z,-2.36
2022-11-17T14:56:11.067Z,-2.35
2022-11-17T14:58:37.712Z,-2.38
2022-11-17T15:01:38.667Z,-2.27
2022-11-17T15:04:21.118Z,-2.38
2022-11-17T15:06:53.288Z,-2.38
2022-11-17T15:09:20.670Z,-2.30
2022-11-17T15:11:48.338Z,-2.40
2022-11-17T15:14:15.391Z,-2.41
2022-11-17T15:16:42.279Z,-2.42
2022-11-17T15:19:08.919Z,-2.46
2022-11-17T15:21:35.540Z,-2.50
2022-11-17T15:24:03.463Z,-2.48
2022-11-17T15:26:30.295Z,-2.45
2022-11-17T15:29:01.218Z,-2.53
2022-11-17T15:31:27.971Z,-2.48
2022-11-17T15:33:54.612Z,-2.53
2022-11-17T15:36:22.977Z,-2.53
2022-11-17T15:38:49.979Z,-2.52
2022-11-17T15:41:16.947Z,-2.51
2022-11-17T15:43:44.680Z,-2.47
2022-11-17T15:46:13.444Z,-2.60
2022-11-17T15:48:44.609Z,-2.45
2022-11-17T15:51:13.886Z,-2.50
2022-11-17T15:53:41.152Z,-2.52
2022-11-17T15:56:11.544Z,-2.47
2022-11-17T15:58:38.972Z,-2.49
2022-11-17T16:01:26.184Z,-2.39
2022-11-17T16:03:57.519Z,-2.41
2022-11-17T16:06:24.304Z,-2.44
2022-11-17T16:08:51.049Z,-2.42
2022-11-17T16:11:17.725Z,-2.47
2022-11-17T16:13:44.343Z,-2.54
2022-11-17T16:16:13.411Z,-2.39
2022-11-17T16:18:40.300Z,-2.46
2022-11-17T19:30:09.311Z,-3.09
2022-11-17T19:32:36.080Z,-3.25
2022-11-17T19:35:13.575Z,-3.30
2022-11-17T19:37:41.458Z,-3.30
2022-11-17T19:40:08.906Z,-3.30
2022-11-17T19:42:35.696Z,-3.17
2022-11-17T19:45:02.381Z,-3.28
2022-11-17T19:47:29.054Z,-3.26
2022-11-17T19:49:55.872Z,-3.24
2022-11-17T19:52:22.609Z,-3.17
2022-11-17T19:54:49.430Z,-3.15
2022-11-17T19:57:16.315Z,-3.22
2022-11-17T19:59:42.993Z,-3.20
2022-11-17T20:02:13.292Z,-3.20
2022-11-17T20:04:40.111Z,-3.19
2022-11-17T20:07:10.812Z,-3.24
2022-11-17T20:09:37.612Z,-3.29
2022-11-17T20:12:05.568Z,-3.42
2022-11-17T20:14:32.702Z,-3.41
2022-11-17T20:16:59.688Z,-3.14
2022-11-17T20:19:27.258Z,-3.34
2022-11-17T20:21:54.728Z,-3.31
2022-11-17T20:24:21.454Z,-3.17
2022-11-17T20:26:49.131Z,-3.25
2022-11-17T20:29:16.147Z,-3.30
2022-11-17T20:31:43.262Z,-3.25
2022-11-17T20:34:12.159Z,-3.33
2022-11-17T20:36:39.011Z,-3.24
2022-11-17T20:39:06.887Z,-3.26
2022-11-17T20:41:34.002Z,-3.27
2022-11-17T20:44:01.032Z,-3.19
2022-11-17T20:46:28.095Z,-3.23
2022-11-17T20:48:55.060Z,-3.13
2022-11-17T20:51:23.439Z,-3.17
2022-11-17T20:53:51.187Z,-3.08
2022-11-17T20:56:18.722Z,-3.36
2022-11-17T20:58:45.684Z,-3.21
2022-11-17T21:01:14.870Z,-3.31
2022-11-17T21:03:42.013Z,-3.35
2022-11-17T21:06:09.645Z,-3.25
2022-11-17T21:08:38.977Z,-3.20
2022-11-17T21:11:11.089Z,-3.30
2022-11-17T21:13:38.433Z,-3.38
2022-11-17T21:16:08.060Z,-3.44
2022-11-17T21:18:36.042Z,-3.45
